.
WxDataArchive / Data Records for 2015-09-25
2015-09-24 September 2015 2015-09-26

Data Records for Friday, 25 September 2015

Time	Temp	Chill	HIndex	Humid	Dewpt	 Wind 	HiWind	WindDir	Rain 	Barom
-----	----	-----	------	-----	-----	------	------	-------	-----	-----
00:00	62.3	62.3	62.3	77	55.0	0	1	112	0.00	30.199 
00:05	62.1	62.1	62.1	77	54.8	0	1	---	0.00	30.199 
00:10	62.0	62.0	62.0	77	54.7	0	1	112	0.00	30.199 
00:15	61.8	61.8	61.8	78	54.9	0	1	112	0.00	30.194 
00:20	61.6	61.6	61.6	79	55.0	0	1	112	0.00	30.194 
00:25	61.6	61.6	61.6	79	55.0	0	1	112	0.00	30.194 
00:30	61.5	61.5	61.5	79	54.9	0	1	112	0.00	30.194 
00:35	61.3	61.3	61.3	80	55.1	0	0	---	0.00	30.194 
00:40	61.2	61.2	61.2	80	55.0	0	1	112	0.00	30.194 
00:45	61.0	61.0	61.0	81	55.1	0	1	112	0.00	30.191 
00:50	60.9	60.9	60.9	81	55.0	0	1	112	0.00	30.191 
00:55	60.5	60.5	60.5	82	55.0	0	0	---	0.00	30.191 
01:00	60.4	60.4	60.4	82	54.9	0	1	112	0.00	30.189 
01:05	60.4	60.4	60.4	83	55.2	0	1	112	0.00	30.189 
01:10	60.2	60.2	60.2	83	55.0	0	1	112	0.00	30.189 
01:15	60.1	60.1	60.1	84	55.2	0	1	112	0.00	30.185 
01:20	59.9	59.9	59.9	84	55.0	0	3	112	0.00	30.185 
01:25	59.8	59.8	59.8	84	55.0	0	1	112	0.00	30.185 
01:30	59.8	59.8	59.8	84	55.0	0	0	---	0.00	30.180 
01:35	59.6	59.6	59.6	85	55.1	0	0	---	0.00	30.180 
01:40	59.5	59.5	59.5	85	55.0	0	0	---	0.00	30.180 
01:45	59.5	59.5	59.5	86	55.3	0	1	112	0.00	30.180 
01:50	59.3	59.3	59.3	86	55.1	0	1	112	0.00	30.180 
01:55	59.3	59.3	59.3	86	55.1	0	1	112	0.00	30.180 
02:00	59.3	59.3	59.3	87	55.4	0	1	112	0.00	30.179 
02:05	59.2	59.2	59.2	87	55.3	0	1	112	0.00	30.179 
02:10	59.0	59.0	59.0	87	55.1	0	1	112	0.00	30.179 
02:15	59.0	59.0	59.0	87	55.1	0	0	---	0.00	30.177 
02:20	58.9	58.9	58.9	88	55.3	0	0	---	0.00	30.177 
02:25	58.7	58.7	58.7	88	55.2	0	1	112	0.00	30.177 
02:30	58.6	58.6	58.6	88	55.1	0	0	---	0.00	30.177 
02:35	58.4	58.4	58.4	88	54.9	0	0	---	0.00	30.177 
02:40	58.3	58.3	58.3	88	54.8	0	0	---	0.00	30.177 
02:45	58.1	58.1	58.1	89	54.9	0	0	---	0.00	30.179 
02:50	58.1	58.1	58.1	89	54.9	0	0	---	0.00	30.179 
02:55	58.1	58.1	58.1	89	54.9	0	0	---	0.00	30.179 
03:00	58.3	58.3	58.3	90	55.4	0	0	---	0.00	30.177 
03:05	58.3	58.3	58.3	90	55.4	0	0	---	0.00	30.177 
03:10	58.4	58.4	58.4	90	55.5	0	0	---	0.00	30.177 
03:15	58.4	58.4	58.4	91	55.8	0	0	---	0.00	30.170 
03:20	58.4	58.4	58.4	91	55.8	0	0	---	0.00	30.170 
03:25	58.3	58.3	58.3	91	55.7	0	0	---	0.00	30.170 
03:30	58.1	58.1	58.1	91	55.5	0	0	---	0.00	30.168 
03:35	58.0	58.0	58.0	91	55.4	0	1	112	0.00	30.168 
03:40	57.8	57.8	57.8	91	55.2	0	0	---	0.00	30.168 
03:45	57.8	57.8	57.8	91	55.2	0	0	---	0.00	30.167 
03:50	57.8	57.8	57.8	92	55.5	0	0	---	0.00	30.167 
03:55	58.0	58.0	58.0	92	55.7	0	0	---	0.00	30.167 
04:00	58.1	58.1	58.1	92	55.8	0	0	---	0.00	30.163 
04:05	58.1	58.1	58.1	92	55.8	0	0	---	0.00	30.163 
04:10	58.1	58.1	58.1	92	55.8	0	0	---	0.00	30.163 
04:15	58.3	58.3	58.3	92	56.0	0	0	---	0.00	30.163 
04:20	58.3	58.3	58.3	93	56.3	0	1	112	0.00	30.163 
04:25	58.3	58.3	58.3	93	56.3	0	0	---	0.00	30.163 
04:30	58.3	58.3	58.3	93	56.3	0	0	---	0.00	30.163 
04:35	58.3	58.3	58.3	93	56.3	0	0	---	0.00	30.163 
04:40	58.3	58.3	58.3	93	56.3	0	0	---	0.00	30.163 
04:45	58.4	58.4	58.4	93	56.4	0	0	---	0.00	30.163 
04:50	58.7	58.7	58.7	93	56.7	0	2	112	0.00	30.163 
04:55	58.9	58.9	58.9	94	57.2	0	0	---	0.00	30.163 
05:00	59.0	59.0	59.0	94	57.3	0	1	112	0.00	30.161 
05:05	59.2	59.2	59.2	94	57.5	0	1	112	0.00	30.161 
05:10	59.3	59.3	59.3	94	57.6	0	1	112	0.00	30.161 
05:15	59.5	59.5	59.5	94	57.8	0	1	112	0.00	30.161 
05:20	59.6	59.6	59.6	94	57.9	0	0	---	0.00	30.161 
05:25	59.6	59.6	59.6	94	57.9	0	0	---	0.00	30.161 
05:30	59.5	59.5	59.5	94	57.8	0	0	---	0.00	30.162 
05:35	59.3	59.3	59.3	94	57.6	0	1	112	0.00	30.162 
05:40	59.2	59.2	59.2	94	57.5	0	0	---	0.00	30.162 
05:45	59.0	59.0	59.0	94	57.3	0	1	112	0.00	30.167 
05:50	58.9	58.9	58.9	94	57.2	0	0	---	0.00	30.167 
05:55	58.7	58.7	58.7	94	57.0	0	0	---	0.00	30.167 
06:00	58.7	58.7	58.7	94	57.0	0	0	---	0.00	30.170 
06:05	58.6	58.6	58.6	94	56.9	0	0	---	0.00	30.170 
06:10	58.4	58.4	58.4	94	56.7	0	0	---	0.00	30.170 
06:15	58.3	58.3	58.3	94	56.6	0	0	---	0.00	30.177 
06:20	58.0	58.0	58.0	94	56.3	0	0	---	0.00	30.177 
06:25	57.8	57.8	57.8	94	56.1	0	0	---	0.00	30.177 
06:30	57.8	57.8	57.8	94	56.1	0	0	---	0.00	30.180 
06:35	57.6	57.6	57.6	94	55.9	0	0	---	0.00	30.180 
06:40	57.5	57.5	57.5	94	55.8	0	0	---	0.00	30.180 
06:45	57.5	57.5	57.5	94	55.8	0	0	---	0.00	30.181 
06:50	57.6	57.6	57.6	95	56.2	0	0	---	0.00	30.181 
06:55	58.0	58.0	58.0	95	56.6	0	2	112	0.00	30.181 
07:00	58.6	58.6	58.6	95	57.2	0	3	112	0.00	30.184 
07:05	58.9	58.9	58.9	95	57.5	0	1	112	0.00	30.184 
07:10	59.0	59.0	59.0	95	57.6	0	2	112	0.00	30.184 
07:15	59.2	59.2	59.2	95	57.8	0	2	112	0.00	30.192 
07:20	59.2	59.2	59.2	95	57.8	0	2	112	0.00	30.192 
07:25	59.2	59.2	59.2	95	57.8	0	2	112	0.00	30.192 
07:30	59.2	59.2	59.2	95	57.8	0	1	112	0.00	30.195 
07:35	59.2	59.2	59.2	95	57.8	0	0	---	0.00	30.195 
07:40	59.2	59.2	59.2	95	57.8	0	0	---	0.00	30.195 
07:45	59.2	59.2	59.2	95	57.8	0	1	112	0.00	30.197 
07:50	59.2	59.2	59.2	95	57.8	0	1	112	0.00	30.197 
07:55	59.2	59.2	59.2	95	57.8	0	2	112	0.00	30.197 
08:00	59.3	59.3	59.3	95	57.9	0	1	112	0.00	30.199 
08:05	59.3	59.3	59.3	95	57.9	0	3	112	0.00	30.199 
08:10	59.2	59.2	59.2	95	57.8	0	3	112	0.00	30.199 
08:15	59.2	59.2	59.2	95	57.8	0	1	112	0.00	30.201 
08:20	59.2	59.2	59.2	95	57.8	1	4	112	0.00	30.201 
08:25	59.0	59.0	59.0	95	57.6	0	2	112	0.00	30.201 
08:30	59.0	59.0	59.0	95	57.6	0	1	112	0.00	30.204 
08:35	58.9	58.9	58.9	95	57.5	0	3	112	0.00	30.204 
08:40	58.9	58.9	58.9	95	57.5	0	4	112	0.00	30.204 
08:45	58.9	58.9	58.9	95	57.5	0	4	112	0.00	30.202 
08:50	58.9	58.9	58.9	95	57.5	0	2	112	0.00	30.202 
08:55	58.7	58.7	58.7	95	57.3	0	3	112	0.00	30.202 
09:00	58.9	58.9	58.9	95	57.5	0	3	112	0.00	30.204 
09:05	59.0	59.0	59.0	96	57.9	0	2	112	0.00	30.204 
09:10	59.2	59.2	59.2	95	57.8	1	3	112	0.00	30.204 
09:15	59.3	59.3	59.3	95	57.9	1	4	112	0.00	30.207 
09:20	59.5	59.5	59.5	95	58.1	0	3	112	0.00	30.207 
09:25	59.5	59.5	59.5	95	58.1	0	2	112	0.00	30.207 
09:30	59.6	59.6	59.6	95	58.2	0	2	112	0.00	30.207 
09:35	59.9	59.9	59.9	95	58.5	1	3	112	0.00	30.207 
09:40	60.2	60.2	60.2	95	58.8	1	4	112	0.00	30.207 
09:45	60.5	60.5	60.5	94	58.8	1	3	112	0.00	30.208 
09:50	60.9	60.9	60.9	93	58.9	1	4	112	0.00	30.208 
09:55	60.9	60.9	60.9	92	58.6	2	4	112	0.00	30.208 
10:00	61.2	61.2	61.2	91	58.5	1	4	112	0.00	30.211 
10:05	61.5	61.5	61.5	91	58.8	0	2	112	0.00	30.211 
10:10	62.0	62.0	62.0	90	59.0	1	4	112	0.00	30.211 
10:15	62.3	62.3	62.3	88	58.7	2	4	112	0.00	30.212 
10:20	62.7	62.7	62.7	88	59.1	1	4	112	0.00	30.212 
10:25	63.5	63.5	63.5	88	59.9	1	4	112	0.00	30.212 
10:30	63.7	63.7	63.7	84	58.8	2	6	112	0.00	30.207 
10:35	64.2	64.2	64.2	82	58.6	2	6	90	0.00	30.207 
10:40	64.8	64.8	64.8	79	58.1	2	5	68	0.00	30.207 
10:45	65.8	65.8	65.8	77	58.4	1	4	68	0.00	30.203 
10:50	66.3	66.3	66.3	76	58.5	1	4	68	0.00	30.203 
10:55	66.3	66.3	66.3	75	58.1	1	4	90	0.00	30.203 
11:00	66.0	66.0	66.0	76	58.2	2	5	112	0.00	30.205 
11:05	66.0	66.0	66.0	76	58.2	1	3	112	0.00	30.205 
11:10	66.1	66.1	66.1	76	58.3	1	4	90	0.00	30.205 
11:15	66.4	66.4	66.4	74	57.9	1	4	90	0.00	30.213 
11:20	66.8	66.8	66.8	73	57.9	2	5	68	0.00	30.213 
11:25	67.3	67.3	67.3	72	58.0	1	5	90	0.00	30.213 
11:30	68.1	68.1	68.1	70	57.9	2	6	90	0.00	30.206 
11:35	68.9	68.9	68.9	67	57.5	2	6	112	0.00	30.206 
11:40	69.4	69.4	69.4	64	56.7	2	6	90	0.00	30.206 
11:45	69.8	69.8	69.8	64	57.1	2	7	90	0.00	30.203 
11:50	69.9	69.9	69.9	62	56.3	3	6	90	0.00	30.203 
11:55	70.1	70.1	70.1	62	56.5	2	7	90	0.00	30.203 
12:00	70.4	70.4	70.4	62	56.7	2	5	112	0.00	30.201 
12:05	70.9	70.9	70.9	62	57.2	2	7	112	0.00	30.201 
12:10	71.5	71.5	71.5	62	57.8	1	5	90	0.00	30.201 
12:15	72.1	72.1	72.1	58	56.5	1	5	90	0.00	30.198 
12:20	72.1	72.1	72.1	58	56.5	2	9	68	0.00	30.198 
12:25	72.3	72.3	72.3	57	56.2	2	5	90	0.00	30.198 
12:30	72.8	72.8	72.8	55	55.7	2	5	90	0.00	30.196 
12:35	73.5	73.5	73.5	58	57.8	1	6	68	0.00	30.196 
12:40	74.2	74.2	74.2	52	55.4	1	5	90	0.00	30.196 
12:45	74.4	74.4	74.4	52	55.6	2	5	90	0.00	30.192 
12:50	74.6	74.6	74.6	53	56.3	2	7	68	0.00	30.192 
12:55	74.6	74.6	74.6	50	54.7	3	6	112	0.00	30.192 
13:00	74.6	74.6	74.6	50	54.7	3	6	90	0.00	30.187 
13:05	74.7	74.7	74.7	51	55.4	2	6	90	0.00	30.187 
13:10	75.1	75.1	77.7	47	53.5	2	7	90	0.00	30.187 
13:15	75.3	75.3	77.7	48	54.2	3	7	90	0.00	30.181 
13:20	75.3	75.3	77.7	47	53.7	2	6	90	0.00	30.181 
13:25	75.4	75.4	77.8	47	53.7	2	6	90	0.00	30.181 
13:30	75.6	75.6	77.8	44	52.1	3	10	90	0.00	30.180 
13:35	75.8	75.8	77.9	46	53.5	4	11	90	0.00	30.180 
13:40	76.0	76.0	78.0	44	52.5	3	9	90	0.00	30.180 
13:45	76.1	76.1	78.0	43	52.0	4	10	90	0.00	30.181 
13:50	76.0	76.0	78.0	45	53.1	3	10	90	0.00	30.181 
13:55	76.3	76.3	78.1	45	53.4	2	6	90	0.00	30.181 
14:00	76.5	76.5	78.2	44	52.9	2	6	90	0.00	30.174 
14:05	76.5	76.5	78.1	43	52.3	2	7	90	0.00	30.174 
14:10	76.5	76.5	78.1	43	52.3	2	7	90	0.00	30.174 
14:15	76.5	76.5	78.2	44	52.9	4	12	90	0.00	30.168 
14:20	76.7	76.7	78.1	41	51.2	4	10	90	0.00	30.168 
14:25	76.7	76.7	78.2	43	52.5	3	9	90	0.00	30.168 
14:30	76.7	76.7	78.2	43	52.5	2	6	112	0.00	30.165 
14:35	77.0	77.0	78.4	45	54.0	2	9	90	0.00	30.165 
14:40	77.4	77.4	78.5	42	52.5	2	6	90	0.00	30.165 
14:45	77.4	77.4	78.5	42	52.5	2	6	90	0.00	30.163 
14:50	77.2	77.2	78.4	41	51.7	2	8	90	0.00	30.163 
14:55	77.0	77.0	78.3	42	52.1	3	10	90	0.00	30.163 
15:00	77.0	77.0	78.3	42	52.1	3	7	90	0.00	30.157 
15:05	77.2	77.2	78.4	42	52.3	2	6	112	0.00	30.157 
15:10	77.2	77.2	78.4	41	51.7	3	9	68	0.00	30.157 
15:15	77.2	77.2	78.4	41	51.7	2	6	90	0.00	30.151 
15:20	77.2	77.2	78.3	40	51.0	3	7	90	0.00	30.151 
15:25	77.2	77.2	78.3	40	51.0	3	7	112	0.00	30.151 
15:30	77.4	77.4	78.5	42	52.5	2	7	90	0.00	30.150 
15:35	77.6	77.6	78.6	41	52.0	3	8	90	0.00	30.150 
15:40	77.7	77.7	78.6	41	52.1	2	6	90	0.00	30.150 
15:45	77.7	77.7	78.5	39	50.7	3	9	90	0.00	30.148 
15:50	77.9	77.9	78.7	40	51.6	2	5	90	0.00	30.148 
15:55	77.9	77.9	78.6	39	50.9	3	6	90	0.00	30.148 
16:00	77.9	77.9	78.7	40	51.6	2	6	90	0.00	30.147 
16:05	77.7	77.7	78.5	38	50.0	2	10	90	0.00	30.147 
16:10	77.7	77.7	78.6	40	51.4	2	5	112	0.00	30.147 
16:15	77.7	77.7	78.5	39	50.7	2	6	90	0.00	30.139 
16:20	77.7	77.7	78.5	39	50.7	3	9	90	0.00	30.139 
16:25	77.6	77.6	78.5	39	50.7	2	6	90	0.00	30.139 
16:30	77.4	77.4	78.4	39	50.5	2	6	112	0.00	30.136 
16:35	77.4	77.4	78.3	38	49.8	2	7	90	0.00	30.136 
16:40	77.2	77.2	78.3	39	50.3	2	7	68	0.00	30.136 
16:45	77.2	77.2	78.3	39	50.3	2	7	90	0.00	30.136 
16:50	77.2	77.2	78.3	39	50.3	2	7	112	0.00	30.136 
16:55	77.0	77.0	78.2	40	50.8	2	7	90	0.00	30.136 
17:00	76.8	76.8	78.1	39	49.9	2	9	90	0.00	30.138 
17:05	76.8	76.8	78.1	39	49.9	3	7	90	0.00	30.138 
17:10	76.8	76.8	78.1	39	49.9	1	6	112	0.00	30.138 
17:15	76.8	76.8	78.1	39	49.9	2	5	90	0.00	30.136 
17:20	76.7	76.7	78.1	39	49.9	2	5	90	0.00	30.136 
17:25	76.7	76.7	78.1	39	49.9	2	8	112	0.00	30.136 
17:30	76.7	76.7	78.1	39	49.9	1	3	112	0.00	30.139 
17:35	76.5	76.5	78.0	40	50.4	2	4	112	0.00	30.139 
17:40	76.1	76.1	77.9	40	50.0	3	7	90	0.00	30.139 
17:45	75.8	75.8	77.8	41	50.4	2	6	90	0.00	30.142 
17:50	75.8	75.8	77.8	41	50.4	1	6	135	0.00	30.142 
17:55	75.8	75.8	77.8	41	50.4	1	6	112	0.00	30.142 
18:00	75.8	75.8	77.8	42	51.1	2	6	90	0.00	30.147 
18:05	75.8	75.8	77.8	41	50.4	2	5	90	0.00	30.147 
18:10	75.6	75.6	77.7	42	50.9	3	9	90	0.00	30.147 
18:15	75.4	75.4	77.7	42	50.7	3	10	90	0.00	30.150 
18:20	75.1	75.1	77.6	42	50.4	2	5	112	0.00	30.150 
18:25	75.1	75.1	77.6	42	50.4	1	5	90	0.00	30.150 
18:30	74.9	74.9	74.9	43	50.9	2	5	90	0.00	30.152 
18:35	74.7	74.7	74.7	44	51.3	1	5	112	0.00	30.152 
18:40	74.6	74.6	74.6	43	50.6	2	6	90	0.00	30.152 
18:45	74.6	74.6	74.6	43	50.6	1	4	90	0.00	30.155 
18:50	74.2	74.2	74.2	43	50.2	1	5	90	0.00	30.155 
18:55	74.0	74.0	74.0	44	50.7	2	5	90	0.00	30.155 
19:00	73.7	73.7	73.7	44	50.4	2	9	90	0.00	30.159 
19:05	73.5	73.5	73.5	45	50.8	2	6	90	0.00	30.159 
19:10	73.2	73.2	73.2	46	51.2	2	9	90	0.00	30.159 
19:15	72.8	72.8	72.8	46	50.8	2	5	112	0.00	30.167 
19:20	72.5	72.5	72.5	47	51.1	1	6	90	0.00	30.167 
19:25	72.1	72.1	72.1	47	50.7	1	3	90	0.00	30.167 
19:30	71.8	71.8	71.8	48	51.0	1	3	90	0.00	30.169 
19:35	71.5	71.5	71.5	49	51.3	0	4	90	0.00	30.169 
19:40	71.1	71.1	71.1	49	51.0	1	3	90	0.00	30.169 
19:45	70.8	70.8	70.8	49	50.7	1	3	90	0.00	30.170 
19:50	70.4	70.4	70.4	50	50.9	0	2	90	0.00	30.170 
19:55	70.1	70.1	70.1	50	50.6	1	3	90	0.00	30.170 
20:00	69.9	69.9	69.9	50	50.4	1	4	68	0.00	30.173 
20:05	69.6	69.6	69.6	51	50.7	1	4	68	0.00	30.173 
20:10	69.3	69.3	69.3	51	50.4	1	5	68	0.00	30.173 
20:15	69.1	69.1	69.1	52	50.7	1	6	68	0.00	30.178 
20:20	68.8	68.8	68.8	53	51.0	0	2	90	0.00	30.178 
20:25	68.6	68.6	68.6	54	51.3	0	2	90	0.00	30.178 
20:30	68.3	68.3	68.3	54	51.0	0	1	90	0.00	30.185 
20:35	67.9	67.9	67.9	55	51.1	0	1	90	0.00	30.185 
20:40	67.6	67.6	67.6	55	50.8	0	2	90	0.00	30.185 
20:45	67.4	67.4	67.4	56	51.1	1	4	90	0.00	30.187 
20:50	67.3	67.3	67.3	56	51.1	0	2	90	0.00	30.187 
20:55	66.9	66.9	66.9	57	51.2	0	2	90	0.00	30.187 
21:00	66.8	66.8	66.8	57	51.1	0	2	90	0.00	30.188 
21:05	66.6	66.6	66.6	57	50.9	1	4	90	0.00	30.188 
21:10	66.6	66.6	66.6	56	50.4	1	4	90	0.00	30.188 
21:15	66.4	66.4	66.4	57	50.7	0	3	90	0.00	30.190 
21:20	66.3	66.3	66.3	57	50.6	1	5	90	0.00	30.190 
21:25	66.1	66.1	66.1	58	50.9	0	1	90	0.00	30.190 
21:30	65.8	65.8	65.8	59	51.1	0	0	---	0.00	30.195 
21:35	65.5	65.5	65.5	59	50.8	0	0	---	0.00	30.195 
21:40	65.2	65.2	65.2	60	51.0	0	0	---	0.00	30.195 
21:45	65.0	65.0	65.0	61	51.2	0	0	---	0.00	30.196 
21:50	64.7	64.7	64.7	62	51.4	0	1	90	0.00	30.196 
21:55	64.3	64.3	64.3	63	51.4	0	1	90	0.00	30.196 
22:00	64.2	64.2	64.2	63	51.3	0	1	90	0.00	30.203 
22:05	64.0	64.0	64.0	64	51.6	0	2	90	0.00	30.203 
22:10	64.0	64.0	64.0	65	52.0	0	1	90	0.00	30.203 
22:15	63.9	63.9	63.9	65	51.9	0	1	90	0.00	30.199 
22:20	63.7	63.7	63.7	66	52.1	0	1	90	0.00	30.199 
22:25	63.5	63.5	63.5	67	52.3	0	1	90	0.00	30.199 
22:30	63.4	63.4	63.4	68	52.6	0	3	90	0.00	30.199 
22:35	63.4	63.4	63.4	69	53.0	1	3	90	0.00	30.199 
22:40	63.4	63.4	63.4	69	53.0	0	3	90	0.00	30.199 
22:45	63.2	63.2	63.2	70	53.2	0	1	90	0.00	30.201 
22:50	63.1	63.1	63.1	71	53.5	0	1	90	0.00	30.201 
22:55	62.9	62.9	62.9	73	54.1	0	1	90	0.00	30.201 
23:00	62.9	62.9	62.9	73	54.1	0	1	90	0.00	30.204 
23:05	62.7	62.7	62.7	74	54.3	0	1	90	0.00	30.204 
23:10	62.7	62.7	62.7	74	54.3	0	3	90	0.00	30.204 
23:15	62.7	62.7	62.7	75	54.7	0	1	90	0.00	30.205 
23:20	62.6	62.6	62.6	76	54.9	0	1	90	0.00	30.205 
23:25	62.4	62.4	62.4	76	54.7	0	1	90	0.00	30.205 
23:30	62.4	62.4	62.4	77	55.1	0	2	90	0.00	30.205 
23:35	62.3	62.3	62.3	78	55.3	0	1	90	0.00	30.205 
23:40	62.3	62.3	62.3	79	55.7	0	0	---	0.00	30.205 
23:45	62.1	62.1	62.1	80	55.9	0	1	90	0.00	30.203 
23:50	62.0	62.0	62.0	80	55.8	0	1	90	0.00	30.203 
23:55	61.8	61.8	61.8	81	55.9	0	1	90	0.00	30.203 

CoCoRaHS
IN-AL-39
A2 Web Hosting
Creative Commons License
GoDaddy
search engine by freefind advanced

loaded 2018-11-16 11:30:50 • last modified 2010-11-18 10:43:29
Privacy PolicyDisclaimer
• wx.awcolley.com is powered by PmWiki v.2002016 •
• all content (unless otherwise noted) © 2018 A W Colley